Roseburg, OR

7:03 AM PST on January 16, 2017 (GMT -0800)
West Umpqua Street | | Change Station
Active Advisory: Air Stagnation Advisory

Elev 0 ft 43.22 °N, 123.36 °W | Updated 4 minutes ago

Overcast
Overcast
33.3 °F
Feels Like 33 °F
N
0.6
Wind Variable Wind from NW
Gusts 1.9 mph

Today
High -- | Low -- °F
--% Chance of Precip.
Yesterday
High -- | Low -- °F
Precip. -- in
Pressure 30.24 in
Visibility 5.0 miles
Clouds Overcast 200 ft
Windchill 33 °F
Dew Point 33 °F
Humidity 100%
Rainfall 0.00 in
Snow Depth Not available.
7:41 AM 5:05 PM
Waning Gibbous, 80% visible
METAR KRBG 161453Z AUTO 00000KT 5SM BR OVC002 02/01 A3022 RMK AO2 SLP238 T00170011 58006
Pressure 30.24 in
Visibility 5.0 miles
Clouds Overcast 200 ft
Windchill 33 °F
Dew Point 33 °F
Humidity 100%
Rainfall 0.00 in
Snow Depth Not available.
7:41 AM 5:05 PM
Waning Gibbous, 80% visible
METAR KRBG 161453Z AUTO 00000KT 5SM BR OVC002 02/01 A3022 RMK AO2 SLP238 T00170011 58006

Get Your Daily Forecast Email!

Thanks for signing up!

Be on the lookout for a verification email in your inbox.

You'll start receiving the daily forecast at 8 AM.

×

10-Day Weather Forecast

Almanac

Astronomy

Jan. 16, 2017 Rise Set
Actual Time
Civil Twilight
Nautical Twilight
Astronomical Twilight
Moon
Length of Visible Light
Length of Day
Tomorrow will be .
, % of the Moon is Illuminated

Today's Extremes

State Highs State Lows

Community

WunderPhotos

Upload Photos

1,962,540 photos uploaded!

WunderBlog® & News

Nearby

Air Quality

  Air Quality AQ Index Pollutant
Not available.

Snow Depth

Station Depth Elevation

Earthquake Activity

City Distance Mag. Time & Date
Minimum magnitude displayed is 2.5.

Coastal Water Temperatures

Place Temperature

Stations

Nearby Weather Stations

Station Location Temp. Windchill Dew Point Humidity Wind Precip. Elev Updated Type
                   

Watches & Warnings

Air Stagnation Advisory
Issued: 2:49 AM PST Jan. 16, 2017 – National Weather Service

... Air stagnation advisory remains in effect until 10 am PST
Tuesday...

* air quality... light winds and limited vertical mixing will
cause airborne particulates to accumulate. These particulates
could diminish air quality in the valleys of central Douglas
County through Tuesday morning.

* Locations include... Roseburg... Sutherlin.

* Impacts... diminished air quality could negatively affect
health... especially for those with respiratory sensitivities.
Please see the Oregon department of air quality's web site at
http://www.Deq.State.US/aqi for detailed air quality
information and thresholds.

* View the hazard area in detail at http://weather.Gov/Medford/hazard

Precautionary/preparedness actions...

An air stagnation advisory indicates that due to limited movement
of an airmass across the advisory area... pollution will increase.